createdAt,value
2018-08-28T00:03:50.249Z,10.70
2018-08-28T00:07:54.524Z,10.70
2018-08-28T00:11:58.780Z,10.70
2018-08-28T00:16:02.957Z,10.80
2018-08-28T00:20:07.210Z,10.80
2018-08-28T00:24:11.433Z,10.70
2018-08-28T00:28:15.764Z,10.90
2018-08-28T00:32:19.949Z,10.90
2018-08-28T00:36:24.445Z,10.90
2018-08-28T00:40:28.646Z,10.90
2018-08-28T00:44:32.830Z,11.10
2018-08-28T00:48:37.204Z,11.10
2018-08-28T00:52:41.399Z,11.00
2018-08-28T00:56:45.873Z,11.00
2018-08-28T01:00:50.068Z,11.00
2018-08-28T01:04:54.393Z,11.10
2018-08-28T01:08:58.672Z,10.90
2018-08-28T01:13:03.104Z,10.90
2018-08-28T01:17:07.309Z,10.90
2018-08-28T01:21:11.912Z,10.90
2018-08-28T01:25:16.088Z,10.90
2018-08-28T01:29:20.379Z,10.90
2018-08-28T01:33:24.567Z,11.00
2018-08-28T01:37:28.972Z,11.00
2018-08-28T01:41:33.171Z,10.90
2018-08-28T01:45:37.390Z,10.90
2018-08-28T01:49:41.683Z,10.80
2018-08-28T01:53:46.028Z,10.70
2018-08-28T01:57:50.394Z,10.70
2018-08-28T02:01:54.604Z,10.60
2018-08-28T02:05:58.877Z,10.60
2018-08-28T02:10:03.075Z,10.60
2018-08-28T02:14:07.716Z,10.50
2018-08-28T02:18:11.885Z,10.50
2018-08-28T02:22:16.217Z,10.50
2018-08-28T02:26:20.433Z,10.50
2018-08-28T02:30:24.585Z,10.50
2018-08-28T02:34:28.968Z,10.40
2018-08-28T02:38:33.215Z,10.40
2018-08-28T02:42:37.377Z,10.40
2018-08-28T02:46:41.545Z,10.30
2018-08-28T02:50:45.776Z,10.30
2018-08-28T02:54:50.031Z,10.20
2018-08-28T02:58:54.319Z,10.20
2018-08-28T03:02:58.518Z,10.20
2018-08-28T03:07:02.966Z,10.10
2018-08-28T03:11:07.229Z,10.10
2018-08-28T03:15:11.792Z,10.00
2018-08-28T03:19:16.015Z,9.90
2018-08-28T03:23:20.412Z,9.90
2018-08-28T03:27:24.622Z,9.90
2018-08-28T03:31:28.921Z,10.00
2018-08-28T03:35:33.100Z,10.00
2018-08-28T03:39:37.523Z,9.80
2018-08-28T03:43:41.860Z,9.70
2018-08-28T03:47:46.507Z,9.70
2018-08-28T03:51:50.713Z,9.70
2018-08-28T03:55:54.905Z,9.70
2018-08-28T03:59:59.200Z,9.70
2018-08-28T04:04:03.500Z,9.70
2018-08-28T04:08:07.961Z,9.70
2018-08-28T04:12:12.188Z,9.60
2018-08-28T04:16:16.525Z,9.60
2018-08-28T04:20:21.949Z,9.60
2018-08-28T04:24:26.109Z,9.60
2018-08-28T04:28:30.504Z,9.60
2018-08-28T04:32:34.673Z,9.60
2018-08-28T04:36:38.946Z,9.60
2018-08-28T04:40:43.147Z,9.60
2018-08-28T04:44:47.322Z,9.60
2018-08-28T04:48:52.100Z,9.60
2018-08-28T04:52:56.265Z,9.70
2018-08-28T04:57:00.661Z,9.80
2018-08-28T05:01:05.349Z,9.90
2018-08-28T05:05:10.314Z,9.90
2018-08-28T05:09:16.344Z,10.00
2018-08-28T05:13:20.914Z,10.00
2018-08-28T05:17:25.832Z,10.10
2018-08-28T05:21:30.574Z,10.20
2018-08-28T05:25:36.491Z,10.40
2018-08-28T05:29:41.212Z,10.50
2018-08-28T05:33:45.611Z,10.60
2018-08-28T05:37:50.339Z,10.70
2018-08-28T05:41:54.845Z,10.80
2018-08-28T05:45:59.046Z,10.90
2018-08-28T05:50:03.343Z,11.00
2018-08-28T05:54:07.603Z,11.10
2018-08-28T05:58:11.891Z,11.30
2018-08-28T06:02:16.085Z,11.40
2018-08-28T06:06:20.384Z,11.60
2018-08-28T06:10:24.564Z,11.80
2018-08-28T06:14:28.915Z,11.90
2018-08-28T06:18:33.190Z,12.20
2018-08-28T06:22:37.579Z,12.40
2018-08-28T06:26:41.909Z,12.60
2018-08-28T06:30:46.089Z,12.90
2018-08-28T06:34:50.469Z,13.00
2018-08-28T06:38:54.666Z,13.30
2018-08-28T06:42:58.827Z,13.40
2018-08-28T06:47:03.175Z,13.70
2018-08-28T06:51:07.445Z,13.90
2018-08-28T06:55:11.818Z,14.30
2018-08-28T06:59:16.025Z,14.50
2018-08-28T07:03:20.291Z,14.90
2018-08-28T07:07:24.607Z,15.10
2018-08-28T07:11:28.804Z,15.40
2018-08-28T07:15:33.111Z,15.80
2018-08-28T07:19:37.281Z,16.20
2018-08-28T07:23:41.580Z,16.60
2018-08-28T07:27:45.791Z,16.80
2018-08-28T07:31:50.165Z,17.10
2018-08-28T07:35:54.349Z,17.40
2018-08-28T07:39:59.051Z,17.70
2018-08-28T07:44:03.232Z,18.10
2018-08-28T07:48:07.604Z,18.30
2018-08-28T07:52:11.848Z,18.60
2018-08-28T07:56:16.184Z,18.90
2018-08-28T08:00:20.381Z,19.20
2018-08-28T08:04:24.673Z,19.50
2018-08-28T08:08:28.978Z,19.90
2018-08-28T08:12:36.074Z,20.20
2018-08-28T08:16:40.272Z,20.50
2018-08-28T08:20:44.599Z,20.70
2018-08-28T08:24:48.869Z,20.80
2018-08-28T08:28:53.308Z,21.00
2018-08-28T08:32:57.696Z,21.10
2018-08-28T08:37:02.441Z,21.50
2018-08-28T08:41:06.800Z,21.60
2018-08-28T08:45:11.094Z,22.10
2018-08-28T08:49:15.252Z,22.20
2018-08-28T08:53:19.798Z,22.90
2018-08-28T08:57:24.233Z,23.40
2018-08-28T09:01:28.578Z,24.30
2018-08-28T09:05:32.795Z,24.60
2018-08-28T09:09:37.149Z,25.30
2018-08-28T09:13:52.980Z,25.70
2018-08-28T09:17:57.333Z,25.50
2018-08-28T09:22:01.662Z,25.10
2018-08-28T09:26:05.931Z,25.20
2018-08-28T09:30:10.820Z,25.90
2018-08-28T09:34:14.968Z,25.70
2018-08-28T09:38:19.521Z,25.80
2018-08-28T09:42:23.917Z,26.90
2018-08-28T09:46:28.170Z,26.80
2018-08-28T09:50:32.549Z,27.30
2018-08-28T09:54:36.719Z,26.80
2018-08-28T09:58:41.078Z,26.70
2018-08-28T10:02:45.358Z,26.70
2018-08-28T10:06:49.690Z,27.10
2018-08-28T10:10:53.947Z,27.10
2018-08-28T10:14:58.128Z,27.40
2018-08-28T10:19:02.469Z,27.20
2018-08-28T10:23:06.714Z,26.90
2018-08-28T10:27:11.095Z,26.90
2018-08-28T10:31:15.314Z,27.50
2018-08-28T10:35:19.574Z,27.30
2018-08-28T10:39:23.909Z,27.60
2018-08-28T10:43:28.103Z,27.40
2018-08-28T10:47:32.480Z,27.70
2018-08-28T10:51:36.767Z,28.50
2018-08-28T10:55:41.124Z,28.50
2018-08-28T10:59:45.335Z,28.90
2018-08-28T11:03:49.672Z,29.90
2018-08-28T11:07:53.873Z,30.00
2018-08-28T11:11:58.325Z,31.00
2018-08-28T11:16:02.690Z,31.70
2018-08-28T11:20:07.065Z,32.40
2018-08-28T11:24:11.455Z,31.60
2018-08-28T11:28:15.646Z,31.00
2018-08-28T11:32:19.838Z,31.20
2018-08-28T11:36:24.274Z,32.70
2018-08-28T11:40:28.456Z,33.20
2018-08-28T11:44:32.673Z,32.60
2018-08-28T11:48:36.929Z,32.20
2018-08-28T11:52:41.218Z,32.90
2018-08-28T11:56:45.408Z,33.90
2018-08-28T12:00:49.628Z,33.40
2018-08-28T12:04:54.140Z,33.00
2018-08-28T12:08:58.358Z,33.80
2018-08-28T12:13:02.719Z,32.90
2018-08-28T12:17:06.911Z,33.30
2018-08-28T12:21:11.364Z,33.10
2018-08-28T12:25:15.552Z,33.80
2018-08-28T12:29:19.863Z,32.90
2018-08-28T12:33:24.129Z,32.70
2018-08-28T12:37:30.128Z,32.90
2018-08-28T12:41:34.350Z,34.80
2018-08-28T12:45:38.744Z,34.60
2018-08-28T12:49:42.993Z,35.10
2018-08-28T12:53:47.273Z,35.30
2018-08-28T12:57:51.440Z,34.40
2018-08-28T13:01:55.709Z,34.90
2018-08-28T13:05:59.947Z,34.90
2018-08-28T13:10:04.390Z,34.80
2018-08-28T13:14:08.718Z,35.50
2018-08-28T13:18:13.184Z,35.40
2018-08-28T13:22:17.384Z,34.90
2018-08-28T13:26:21.675Z,34.90
2018-08-28T13:30:25.872Z,34.50
2018-08-28T13:34:30.089Z,35.70
2018-08-28T13:38:34.429Z,36.50
2018-08-28T13:42:38.612Z,36.80
2018-08-28T13:46:42.882Z,36.80
2018-08-28T13:50:47.127Z,36.70
2018-08-28T13:54:51.460Z,35.60
2018-08-28T13:58:55.683Z,35.80
2018-08-28T14:03:00.326Z,36.30
2018-08-28T14:07:04.652Z,36.80
2018-08-28T14:11:08.867Z,35.80
2018-08-28T14:15:13.249Z,35.80
2018-08-28T14:19:17.727Z,35.10
2018-08-28T14:23:22.133Z,35.70
2018-08-28T14:27:26.397Z,35.60
2018-08-28T14:31:30.723Z,35.50
2018-08-28T14:35:35.054Z,35.20
2018-08-28T14:39:39.254Z,34.30
2018-08-28T14:43:43.541Z,35.20
2018-08-28T14:47:47.745Z,35.20
2018-08-28T14:51:51.961Z,35.10
2018-08-28T14:55:56.356Z,35.00
2018-08-28T15:00:00.648Z,35.10
2018-08-28T15:04:08.137Z,34.50
2018-08-28T15:08:12.371Z,34.20
2018-08-28T15:12:16.882Z,33.70
2018-08-28T15:16:21.173Z,33.60
2018-08-28T15:20:33.739Z,33.40
2018-08-28T15:24:38.310Z,32.70
2018-08-28T15:28:48.645Z,33.00
2018-08-28T15:32:58.405Z,31.90
2018-08-28T15:37:09.208Z,30.30
2018-08-28T15:41:18.528Z,28.90
2018-08-28T15:45:28.258Z,27.90
2018-08-28T15:49:37.892Z,27.40
2018-08-28T15:53:47.991Z,26.50
2018-08-28T15:57:52.508Z,26.10
2018-08-28T16:01:56.723Z,25.90
2018-08-28T16:06:00.922Z,25.50
2018-08-28T16:10:05.317Z,25.30
2018-08-28T16:14:09.700Z,24.90
2018-08-28T16:18:14.303Z,24.50
2018-08-28T16:22:24.572Z,24.30
2018-08-28T16:26:28.776Z,24.10
2018-08-28T16:30:33.308Z,23.90
2018-08-28T16:34:37.764Z,23.80
2018-08-28T16:38:42.140Z,23.70
2018-08-28T16:42:46.379Z,23.50
2018-08-28T16:46:50.732Z,23.10
2018-08-28T16:50:54.887Z,22.70
2018-08-28T16:54:59.278Z,22.20
2018-08-28T16:59:03.727Z,22.00
2018-08-28T17:03:09.213Z,21.80
2018-08-28T17:07:13.418Z,21.50
2018-08-28T17:11:17.798Z,21.20
2018-08-28T17:15:22.244Z,20.90
2018-08-28T17:19:26.616Z,20.80
2018-08-28T17:23:30.838Z,20.70
2018-08-28T17:27:35.167Z,20.50
2018-08-28T17:31:39.709Z,20.20
2018-08-28T17:35:44.016Z,20.00
2018-08-28T17:39:48.228Z,19.70
2018-08-28T17:43:52.469Z,19.60
2018-08-28T17:47:56.800Z,19.40
2018-08-28T17:52:01.005Z,19.10
2018-08-28T17:56:05.421Z,18.90
2018-08-28T18:00:09.709Z,18.60
2018-08-28T18:04:14.954Z,18.50
2018-08-28T18:08:19.342Z,18.40
2018-08-28T18:12:23.646Z,18.20
2018-08-28T18:16:28.240Z,18.00
2018-08-28T18:20:32.545Z,17.90
2018-08-28T18:24:36.763Z,17.70
2018-08-28T18:28:41.151Z,17.60
2018-08-28T18:32:45.330Z,17.40
2018-08-28T18:36:49.956Z,17.40
2018-08-28T18:40:55.404Z,17.30
2018-08-28T18:44:59.944Z,17.20
2018-08-28T18:49:04.936Z,17.10
2018-08-28T18:53:09.552Z,17.10
2018-08-28T18:57:14.077Z,16.90
2018-08-28T19:01:18.585Z,16.80
2018-08-28T19:05:22.862Z,16.80
2018-08-28T19:09:27.367Z,16.60
2018-08-28T19:13:31.963Z,16.60
2018-08-28T19:17:42.689Z,16.50
2018-08-28T19:21:53.788Z,16.40
2018-08-28T19:26:03.898Z,16.30
2018-08-28T19:30:13.135Z,16.30
2018-08-28T19:34:23.056Z,16.20
2018-08-28T19:38:33.448Z,16.10
2018-08-28T19:42:44.728Z,16.00
2018-08-28T19:46:53.925Z,16.00
2018-08-28T19:51:03.407Z,15.90
2018-08-28T19:55:12.332Z,15.90
2018-08-28T19:59:22.760Z,15.80
2018-08-28T20:03:33.464Z,15.70
2018-08-28T20:07:42.792Z,15.60
2018-08-28T20:11:51.980Z,15.60
2018-08-28T20:16:01.774Z,15.50
2018-08-28T20:20:11.802Z,15.40
2018-08-28T20:24:21.518Z,15.30
2018-08-28T20:28:31.613Z,15.30
2018-08-28T20:32:41.862Z,15.30
2018-08-28T20:36:50.964Z,15.20
2018-08-28T20:41:00.594Z,15.10
2018-08-28T20:45:11.169Z,15.10
2018-08-28T20:49:21.608Z,15.00
2018-08-28T20:53:31.363Z,15.00
2018-08-28T20:57:41.289Z,14.90
2018-08-28T21:01:50.767Z,14.80
2018-08-28T21:06:00.198Z,14.80
2018-08-28T21:10:16.068Z,14.70
2018-08-28T21:14:26.712Z,14.60
2018-08-28T21:18:37.986Z,14.60
2018-08-28T21:22:47.432Z,14.60
2018-08-28T21:26:56.836Z,14.50
2018-08-28T21:31:07.324Z,14.50
2018-08-28T21:35:16.920Z,14.40
2018-08-28T21:39:26.639Z,14.40
2018-08-28T21:43:36.235Z,14.40
2018-08-28T21:47:46.509Z,14.30
2018-08-28T21:51:56.507Z,14.30
2018-08-28T21:56:06.256Z,14.30
2018-08-28T22:00:15.709Z,14.20
2018-08-28T22:04:25.005Z,14.10
2018-08-28T22:08:34.791Z,14.10
2018-08-28T22:12:44.757Z,14.10
2018-08-28T22:16:57.060Z,14.00
2018-08-28T22:21:06.610Z,14.00
2018-08-28T22:25:15.958Z,13.90
2018-08-28T22:29:30.995Z,13.90
2018-08-28T22:33:45.771Z,13.90
2018-08-28T22:37:55.096Z,13.80
2018-08-28T22:42:05.491Z,13.80
2018-08-28T22:46:16.361Z,13.70
2018-08-28T22:50:25.908Z,13.70
2018-08-28T22:54:35.786Z,13.70
2018-08-28T22:58:40.267Z,13.60
2018-08-28T23:02:44.491Z,13.60
2018-08-28T23:06:58.028Z,13.50
2018-08-28T23:11:10.980Z,13.50
2018-08-28T23:15:27.359Z,13.50
2018-08-28T23:19:39.695Z,13.50
2018-08-28T23:23:56.943Z,13.40
2018-08-28T23:28:10.431Z,13.30
2018-08-28T23:32:23.345Z,13.30
2018-08-28T23:36:38.711Z,13.30
2018-08-28T23:40:55.308Z,13.30
2018-08-28T23:45:10.682Z,13.20
2018-08-28T23:49:26.650Z,13.20
2018-08-28T23:53:39.644Z,13.20
2018-08-28T23:57:57.937Z,13.20
